createdAt,value
2018-05-16T00:01:30.624Z,99.90
2018-05-16T00:03:58.079Z,99.90
2018-05-16T00:06:26.327Z,99.90
2018-05-16T00:08:53.811Z,99.90
2018-05-16T00:11:21.345Z,99.90
2018-05-16T00:13:49.572Z,99.90
2018-05-16T00:16:17.792Z,99.90
2018-05-16T00:18:45.281Z,99.90
2018-05-16T00:24:04.208Z,99.90
2018-05-16T00:26:31.668Z,99.90
2018-05-16T00:28:59.967Z,99.90
2018-05-16T00:31:28.206Z,99.90
2018-05-16T00:33:55.660Z,99.90
2018-05-16T00:36:23.189Z,99.90
2018-05-16T00:38:50.647Z,99.90
2018-05-16T00:41:18.123Z,99.90
2018-05-16T00:43:46.341Z,99.90
2018-05-16T00:46:13.804Z,99.90
2018-05-16T00:48:42.028Z,99.90
2018-05-16T00:51:23.467Z,99.90
2018-05-16T00:53:50.940Z,99.90
2018-05-16T00:56:18.417Z,99.90
2018-05-16T00:58:45.880Z,99.90
2018-05-16T01:01:14.122Z,99.90
2018-05-16T01:03:41.580Z,99.90
2018-05-16T01:06:09.049Z,99.90
2018-05-16T01:08:36.648Z,99.90
2018-05-16T01:11:04.153Z,99.90
2018-05-16T01:13:31.628Z,99.90
2018-05-16T01:15:59.088Z,99.90
2018-05-16T01:18:26.648Z,99.90
2018-05-16T01:20:54.873Z,99.90
2018-05-16T01:23:22.376Z,99.90
2018-05-16T01:25:49.838Z,99.90
2018-05-16T01:28:17.346Z,99.90
2018-05-16T01:30:44.805Z,99.90
2018-05-16T01:33:12.280Z,99.90
2018-05-16T01:35:40.488Z,99.90
2018-05-16T01:38:08.742Z,99.90
2018-05-16T01:40:36.233Z,99.90
2018-05-16T01:43:03.803Z,99.90
2018-05-16T01:45:31.276Z,99.90
2018-05-16T01:47:58.778Z,99.90
2018-05-16T01:50:26.250Z,99.90
2018-05-16T01:52:53.738Z,99.90
2018-05-16T01:55:21.546Z,99.90
2018-05-16T01:57:49.017Z,99.90
2018-05-16T02:00:16.499Z,99.90
2018-05-16T02:02:44.044Z,99.90
2018-05-16T02:05:12.297Z,99.90
2018-05-16T02:07:39.774Z,99.90
2018-05-16T02:10:07.274Z,99.90
2018-05-16T02:12:34.743Z,99.90
2018-05-16T02:15:02.204Z,99.90
2018-05-16T02:17:29.682Z,99.90
2018-05-16T02:19:57.143Z,99.90
2018-05-16T02:22:24.696Z,99.90
2018-05-16T02:24:52.189Z,99.90
2018-05-16T02:27:19.654Z,99.90
2018-05-16T02:29:47.118Z,99.90
2018-05-16T02:32:15.370Z,99.90
2018-05-16T02:34:42.898Z,99.90
2018-05-16T02:37:10.365Z,99.90
2018-05-16T02:39:37.936Z,99.90
2018-05-16T02:42:05.415Z,99.90
2018-05-16T02:44:32.892Z,99.90
2018-05-16T02:47:00.385Z,99.90
2018-05-16T02:49:27.864Z,99.90
2018-05-16T02:51:55.340Z,99.90
2018-05-16T02:54:22.838Z,99.90
2018-05-16T02:56:50.309Z,99.90
2018-05-16T02:59:17.769Z,99.90
2018-05-16T03:01:45.236Z,99.90
2018-05-16T03:04:13.495Z,99.90
2018-05-16T03:06:40.972Z,99.90
2018-05-16T03:09:08.453Z,99.90
2018-05-16T03:11:35.933Z,99.90
2018-05-16T03:14:03.401Z,99.90
2018-05-16T03:16:30.869Z,99.90
2018-05-16T03:18:58.372Z,99.90
2018-05-16T03:21:25.828Z,99.90
2018-05-16T03:23:54.053Z,99.90
2018-05-16T03:26:21.562Z,99.90
2018-05-16T03:28:49.061Z,99.90
2018-05-16T03:31:16.517Z,99.90
2018-05-16T03:33:43.982Z,99.90
2018-05-16T03:36:12.386Z,99.90
2018-05-16T03:38:39.920Z,99.90
2018-05-16T03:41:07.418Z,99.90
2018-05-16T03:43:34.881Z,99.90
2018-05-16T03:46:02.397Z,99.90
2018-05-16T03:48:29.857Z,99.90
2018-05-16T03:50:58.074Z,99.90
2018-05-16T03:53:25.530Z,99.90
2018-05-16T03:55:53.076Z,99.90
2018-05-16T03:58:32.544Z,99.90
2018-05-16T04:01:11.755Z,99.90
2018-05-16T04:03:52.093Z,99.90
2018-05-16T04:06:19.682Z,99.90
2018-05-16T04:08:47.146Z,99.90
2018-05-16T04:11:14.597Z,99.90
2018-05-16T04:13:42.833Z,99.90
2018-05-16T04:16:10.389Z,99.90
2018-05-16T04:18:37.776Z,99.90
2018-05-16T04:21:05.292Z,99.90
2018-05-16T04:23:32.774Z,99.90
2018-05-16T04:26:00.254Z,99.90
2018-05-16T04:28:27.701Z,99.90
2018-05-16T04:30:55.192Z,99.90
2018-05-16T04:33:23.435Z,99.90
2018-05-16T04:35:50.892Z,99.90
2018-05-16T04:38:18.352Z,99.90
2018-05-16T04:40:45.804Z,99.90
2018-05-16T04:43:14.646Z,99.90
2018-05-16T04:45:42.157Z,99.90
2018-05-16T04:48:09.615Z,99.90
2018-05-16T04:50:37.095Z,99.90
2018-05-16T04:53:04.561Z,99.90
2018-05-16T04:55:32.029Z,99.90
2018-05-16T04:57:59.522Z,99.90
2018-05-16T05:00:26.998Z,99.90
2018-05-16T05:02:55.240Z,99.90
2018-05-16T05:05:22.736Z,99.90
2018-05-16T05:07:50.965Z,99.90
2018-05-16T05:10:19.221Z,99.90
2018-05-16T05:12:46.684Z,99.90
2018-05-16T05:15:14.138Z,99.90
2018-05-16T05:17:41.645Z,99.90
2018-05-16T05:20:09.165Z,99.90
2018-05-16T05:22:36.621Z,99.90
2018-05-16T05:25:04.879Z,99.90
2018-05-16T05:27:32.397Z,99.90
2018-05-16T05:29:59.853Z,99.90
2018-05-16T05:32:27.325Z,99.90
2018-05-16T05:34:54.828Z,99.90
2018-05-16T05:37:22.352Z,99.90
2018-05-16T05:39:49.808Z,99.90
2018-05-16T05:42:17.264Z,99.90
2018-05-16T05:44:44.725Z,99.90
2018-05-16T05:47:12.204Z,99.90
2018-05-16T05:49:39.664Z,99.90
2018-05-16T05:52:07.124Z,99.90
2018-05-16T05:54:34.689Z,99.90
2018-05-16T05:57:02.173Z,99.90
2018-05-16T05:59:29.653Z,99.90
2018-05-16T06:01:57.117Z,99.90
2018-05-16T06:04:24.612Z,99.90
2018-05-16T06:06:52.097Z,99.90
2018-05-16T06:09:19.557Z,99.90
2018-05-16T06:11:47.013Z,99.90
2018-05-16T06:14:15.983Z,99.90
2018-05-16T06:16:43.431Z,99.90
2018-05-16T06:19:11.691Z,99.90
2018-05-16T06:21:39.185Z,99.90
2018-05-16T06:24:06.641Z,99.90
2018-05-16T06:26:34.149Z,99.90
2018-05-16T06:29:01.646Z,99.90
2018-05-16T06:31:29.107Z,99.90
2018-05-16T06:33:56.569Z,99.90
2018-05-16T06:36:24.798Z,99.90
2018-05-16T06:38:52.304Z,99.90
2018-05-16T06:41:19.762Z,99.90
2018-05-16T06:43:47.232Z,99.90
2018-05-16T06:46:14.748Z,99.90
2018-05-16T06:48:42.205Z,99.90
2018-05-16T06:51:09.661Z,99.90
2018-05-16T06:53:37.920Z,99.90
2018-05-16T06:56:05.377Z,99.90
2018-05-16T06:58:32.833Z,99.90
2018-05-16T07:01:01.056Z,99.90
2018-05-16T07:03:28.584Z,99.90
2018-05-16T07:05:56.036Z,99.90
2018-05-16T07:08:24.269Z,99.30
2018-05-16T07:10:52.570Z,98.40
2018-05-16T07:13:20.825Z,95.80
2018-05-16T07:15:48.281Z,95.60
2018-05-16T07:18:16.540Z,95.80
2018-05-16T07:20:44.005Z,95.80
2018-05-16T07:23:11.512Z,95.20
2018-05-16T07:25:38.984Z,92.90
2018-05-16T07:28:06.471Z,88.20
2018-05-16T07:30:33.928Z,84.50
2018-05-16T07:33:01.390Z,84.20
2018-05-16T07:35:29.649Z,81.40
2018-05-16T07:37:57.147Z,81.40
2018-05-16T07:40:24.647Z,80.40
2018-05-16T07:42:52.121Z,85.90
2018-05-16T07:45:19.604Z,87.10
2018-05-16T07:47:47.084Z,89.70
2018-05-16T07:50:14.545Z,89.50
2018-05-16T07:52:42.052Z,85.10
2018-05-16T07:55:09.535Z,82.20
2018-05-16T07:57:37.008Z,84.20
2018-05-16T08:00:04.472Z,83.10
2018-05-16T08:02:31.939Z,70.50
2018-05-16T08:04:59.457Z,61.40
2018-05-16T08:07:26.961Z,60.80
2018-05-16T08:09:54.444Z,50.90
2018-05-16T08:12:22.027Z,54.10
2018-05-16T08:14:49.516Z,59.80
2018-05-16T08:17:16.978Z,65.10
2018-05-16T08:19:44.500Z,68.00
2018-05-16T08:22:11.997Z,65.60
2018-05-16T08:24:39.602Z,68.20
2018-05-16T08:27:07.048Z,64.30
2018-05-16T08:29:34.519Z,64.80
2018-05-16T08:32:02.036Z,63.10
2018-05-16T08:34:29.500Z,60.70
2018-05-16T08:36:57.009Z,59.70
2018-05-16T08:39:24.480Z,57.90
2018-05-16T08:41:51.940Z,52.80
2018-05-16T08:44:19.469Z,49.40
2018-05-16T08:46:47.040Z,48.50
2018-05-16T08:49:14.505Z,48.90
2018-05-16T08:51:41.964Z,49.90
2018-05-16T08:54:10.213Z,54.60
2018-05-16T08:56:37.688Z,54.50
2018-05-16T08:59:05.163Z,57.80
2018-05-16T09:01:32.629Z,60.30
2018-05-16T09:04:00.094Z,57.50
2018-05-16T09:06:28.322Z,60.30
2018-05-16T09:08:55.789Z,60.20
2018-05-16T09:11:23.308Z,57.80
2018-05-16T09:13:50.815Z,53.10
2018-05-16T09:16:19.081Z,52.60
2018-05-16T09:18:46.580Z,52.60
2018-05-16T09:21:14.063Z,52.70
2018-05-16T09:23:41.541Z,53.50
2018-05-16T09:26:09.004Z,54.60
2018-05-16T09:28:36.597Z,52.20
2018-05-16T09:31:04.081Z,50.20
2018-05-16T09:33:31.545Z,49.40
2018-05-16T09:35:59.030Z,54.20
2018-05-16T09:38:26.494Z,54.10
2018-05-16T09:40:54.722Z,54.70
2018-05-16T09:43:22.245Z,54.60
2018-05-16T09:45:49.920Z,53.30
2018-05-16T09:48:17.292Z,53.70
2018-05-16T09:50:44.756Z,50.50
2018-05-16T09:53:13.021Z,46.40
2018-05-16T09:55:40.500Z,46.30
2018-05-16T09:58:07.994Z,47.40
2018-05-16T10:00:35.481Z,47.20
2018-05-16T10:03:02.953Z,43.90
2018-05-16T10:05:30.442Z,43.20
2018-05-16T10:07:57.927Z,46.80
2018-05-16T10:10:25.401Z,44.80
2018-05-16T10:12:52.879Z,46.40
2018-05-16T10:15:20.349Z,47.10
2018-05-16T10:17:48.597Z,48.30
2018-05-16T10:20:16.146Z,48.30
2018-05-16T10:22:43.544Z,51.70
2018-05-16T10:25:11.888Z,45.80
2018-05-16T10:27:39.362Z,45.80
2018-05-16T10:30:06.869Z,47.40
2018-05-16T10:32:34.338Z,45.10
2018-05-16T10:35:01.801Z,44.90
2018-05-16T10:37:29.272Z,45.10
2018-05-16T10:39:57.496Z,41.20
2018-05-16T10:42:25.006Z,41.20
2018-05-16T10:44:52.465Z,45.20
2018-05-16T10:47:19.935Z,45.30
2018-05-16T10:49:47.406Z,46.50
2018-05-16T10:52:14.899Z,45.80
2018-05-16T10:54:43.123Z,41.10
2018-05-16T10:57:10.629Z,41.20
2018-05-16T10:59:38.096Z,39.50
2018-05-16T11:02:05.561Z,36.30
2018-05-16T11:04:33.088Z,37.40
2018-05-16T11:07:00.565Z,39.90
2018-05-16T11:09:28.066Z,42.10
2018-05-16T11:11:55.528Z,44.10
2018-05-16T11:14:23.039Z,44.80
2018-05-16T11:16:50.514Z,46.10
2018-05-16T11:19:18.174Z,48.50
2018-05-16T11:21:45.481Z,51.60
2018-05-16T11:24:12.977Z,53.30
2018-05-16T11:26:40.459Z,53.50
2018-05-16T11:29:07.922Z,57.00
2018-05-16T11:31:35.421Z,57.00
2018-05-16T11:34:02.889Z,57.60
2018-05-16T11:36:30.402Z,58.20
2018-05-16T11:38:57.989Z,58.70
2018-05-16T11:41:25.456Z,60.60
2018-05-16T11:43:52.932Z,63.30
2018-05-16T11:46:20.406Z,66.10
2018-05-16T11:48:47.945Z,69.10
2018-05-16T11:51:15.497Z,73.90
2018-05-16T11:53:43.077Z,74.90
2018-05-16T11:56:10.547Z,76.10
2018-05-16T11:58:38.017Z,73.70
2018-05-16T12:01:05.528Z,77.00
2018-05-16T12:03:33.002Z,77.20
2018-05-16T12:06:00.497Z,73.10
2018-05-16T12:08:27.984Z,66.30
2018-05-16T12:10:55.453Z,65.40
2018-05-16T12:13:22.920Z,63.30
2018-05-16T12:15:50.391Z,63.20
2018-05-16T12:18:17.857Z,64.50
2018-05-16T12:20:46.100Z,65.20
2018-05-16T12:23:13.569Z,65.10
2018-05-16T12:25:41.035Z,70.30
2018-05-16T12:28:09.289Z,65.60
2018-05-16T12:30:36.817Z,65.40
2018-05-16T12:33:05.072Z,71.00
2018-05-16T12:35:32.561Z,70.90
2018-05-16T12:38:00.055Z,70.90
2018-05-16T12:40:27.629Z,69.70
2018-05-16T12:43:07.040Z,67.70
2018-05-16T12:45:35.289Z,66.90
2018-05-16T12:48:02.749Z,66.30
2018-05-16T12:50:30.257Z,67.50
2018-05-16T12:52:57.743Z,66.90
2018-05-16T12:55:25.205Z,64.70
2018-05-16T12:57:52.709Z,64.70
2018-05-16T13:00:20.232Z,68.20
2018-05-16T13:02:48.460Z,67.40
2018-05-16T13:05:15.929Z,67.30
2018-05-16T13:07:43.396Z,66.70
2018-05-16T13:10:11.624Z,65.30
2018-05-16T13:12:39.132Z,65.30
2018-05-16T13:15:06.596Z,66.90
2018-05-16T13:17:34.065Z,65.40
2018-05-16T13:20:01.585Z,64.30
2018-05-16T13:22:29.168Z,63.80
2018-05-16T13:24:56.641Z,62.10
2018-05-16T13:27:24.104Z,58.00
2018-05-16T13:29:51.634Z,55.40
2018-05-16T13:32:19.092Z,55.00
2018-05-16T13:34:46.557Z,54.20
2018-05-16T13:37:14.822Z,53.00
2018-05-16T13:39:42.337Z,53.00
2018-05-16T13:42:10.613Z,51.80
2018-05-16T13:44:38.072Z,51.70
2018-05-16T13:47:06.846Z,52.10
2018-05-16T13:49:34.399Z,50.20
2018-05-16T13:52:01.886Z,52.60
2018-05-16T13:54:29.356Z,53.40
2018-05-16T13:56:56.906Z,55.70
2018-05-16T13:59:25.153Z,59.10
2018-05-16T14:01:52.617Z,59.00
2018-05-16T14:04:20.112Z,60.90
2018-05-16T14:06:47.620Z,61.90
2018-05-16T14:09:15.109Z,67.30
2018-05-16T14:11:42.693Z,68.30
2018-05-16T14:14:10.172Z,71.40
2018-05-16T14:16:37.652Z,72.50
2018-05-16T14:19:05.161Z,76.70
2018-05-16T14:21:32.634Z,75.70
2018-05-16T14:24:00.559Z,73.50
2018-05-16T14:26:28.219Z,74.70
2018-05-16T14:28:56.457Z,75.80
2018-05-16T14:31:24.103Z,75.80
2018-05-16T14:33:51.657Z,78.40
2018-05-16T14:36:19.112Z,75.00
2018-05-16T14:38:46.935Z,76.00
2018-05-16T14:41:14.476Z,78.90
2018-05-16T14:43:41.940Z,78.30
2018-05-16T14:46:10.165Z,78.70
2018-05-16T14:48:39.395Z,77.50
2018-05-16T14:51:06.897Z,77.50
2018-05-16T14:53:35.125Z,77.30
2018-05-16T14:56:03.360Z,77.60
2018-05-16T14:58:30.908Z,77.60
2018-05-16T15:00:58.551Z,75.80
2018-05-16T15:03:26.141Z,79.30
2018-05-16T15:05:53.637Z,76.80
2018-05-16T15:08:21.092Z,76.90
2018-05-16T15:10:48.645Z,75.80
2018-05-16T15:13:16.195Z,72.40
2018-05-16T15:15:44.445Z,73.30
2018-05-16T15:18:11.904Z,73.30
2018-05-16T15:20:39.380Z,71.80
2018-05-16T15:23:06.909Z,69.30
2018-05-16T15:25:34.485Z,69.70
2018-05-16T15:28:01.952Z,71.50
2018-05-16T15:30:29.427Z,70.90
2018-05-16T15:32:56.954Z,72.20
2018-05-16T15:35:24.400Z,72.60
2018-05-16T15:37:51.933Z,74.40
2018-05-16T15:40:19.486Z,77.50
2018-05-16T15:42:46.963Z,75.90
2018-05-16T15:45:14.487Z,76.40
2018-05-16T15:47:41.982Z,75.00
2018-05-16T15:50:09.578Z,72.50
2018-05-16T15:52:37.049Z,73.30
2018-05-16T15:55:04.520Z,73.90
2018-05-16T15:57:32.005Z,73.10
2018-05-16T15:59:59.469Z,72.80
2018-05-16T16:02:26.945Z,74.00
2018-05-16T16:04:55.171Z,75.20
2018-05-16T16:07:23.516Z,75.10
2018-05-16T16:09:51.098Z,74.20
2018-05-16T16:12:18.581Z,74.10
2018-05-16T16:14:46.060Z,74.80
2018-05-16T16:17:13.526Z,75.80
2018-05-16T16:19:40.988Z,76.30
2018-05-16T16:22:09.241Z,72.30
2018-05-16T16:24:36.741Z,72.30
2018-05-16T16:27:04.261Z,76.70
2018-05-16T16:29:31.864Z,78.20
2018-05-16T16:31:59.328Z,77.80
2018-05-16T16:34:26.792Z,79.60
2018-05-16T16:36:54.248Z,79.50
2018-05-16T16:39:22.496Z,79.20
2018-05-16T16:41:49.997Z,79.10
2018-05-16T16:44:17.462Z,78.60
2018-05-16T16:46:44.924Z,76.70
2018-05-16T16:49:12.452Z,76.20
2018-05-16T16:51:40.004Z,75.70
2018-05-16T16:54:07.518Z,76.10
2018-05-16T16:56:35.014Z,76.00
2018-05-16T16:59:02.479Z,75.50
2018-05-16T17:01:29.945Z,74.20
2018-05-16T17:03:58.209Z,74.40
2018-05-16T17:06:25.698Z,74.40
2018-05-16T17:08:53.277Z,78.30
2018-05-16T17:11:20.809Z,76.90
2018-05-16T17:14:23.399Z,76.10
2018-05-16T17:16:50.857Z,78.00
2018-05-16T17:19:18.348Z,78.80
2018-05-16T17:21:46.042Z,79.40
2018-05-16T17:24:13.640Z,79.40
2018-05-16T17:26:41.174Z,78.50
2018-05-16T17:29:08.831Z,79.80
2018-05-16T17:31:36.297Z,81.00
2018-05-16T17:34:04.261Z,81.80
2018-05-16T17:36:32.520Z,82.30
2018-05-16T17:38:59.976Z,82.20
2018-05-16T17:41:27.490Z,82.10
2018-05-16T17:43:55.026Z,83.10
2018-05-16T17:46:23.357Z,83.10
2018-05-16T17:48:51.035Z,83.10
2018-05-16T17:51:18.523Z,83.70
2018-05-16T17:53:46.012Z,85.20
2018-05-16T17:56:14.255Z,85.40
2018-05-16T17:58:41.722Z,85.40
2018-05-16T18:01:09.234Z,85.20
2018-05-16T18:03:36.687Z,83.60
2018-05-16T18:06:04.162Z,84.90
2018-05-16T18:08:31.685Z,86.60
2018-05-16T18:10:59.153Z,86.40
2018-05-16T18:16:46.778Z,85.90
2018-05-16T18:19:14.231Z,85.90
2018-05-16T18:21:42.464Z,86.90
2018-05-16T18:24:09.978Z,86.70
2018-05-16T18:26:37.452Z,87.60
2018-05-16T18:29:04.936Z,87.50
2018-05-16T18:31:32.404Z,88.70
2018-05-16T18:33:59.889Z,88.40
2018-05-16T18:36:27.358Z,88.70
2018-05-16T18:38:54.819Z,89.90
2018-05-16T18:41:23.087Z,93.20
2018-05-16T18:43:50.552Z,92.90
2018-05-16T18:46:18.025Z,93.40
2018-05-16T18:48:45.562Z,92.60
2018-05-16T18:51:13.026Z,93.50
2018-05-16T18:53:40.531Z,95.10
2018-05-16T18:56:08.030Z,96.10
2018-05-16T18:58:35.508Z,97.00
2018-05-16T19:01:02.976Z,97.40
2018-05-16T19:03:30.496Z,97.80
2018-05-16T19:05:57.988Z,99.20
2018-05-16T19:08:25.457Z,99.90
2018-05-16T19:10:52.926Z,99.90
2018-05-16T19:13:20.452Z,99.90
2018-05-16T19:15:47.947Z,99.90
2018-05-16T19:18:15.406Z,99.90
2018-05-16T19:20:42.872Z,99.90
2018-05-16T19:23:11.102Z,99.90
2018-05-16T19:25:38.564Z,99.90
2018-05-16T19:28:06.031Z,99.90
2018-05-16T19:30:33.489Z,99.90
2018-05-16T19:33:00.957Z,99.90
2018-05-16T19:35:28.457Z,99.90
2018-05-16T19:37:55.947Z,99.90
2018-05-16T19:40:23.432Z,99.90
2018-05-16T19:42:50.901Z,99.90
2018-05-16T19:45:18.369Z,99.90
2018-05-16T19:47:45.841Z,99.90
2018-05-16T19:50:13.313Z,99.90
2018-05-16T19:52:40.786Z,99.90
2018-05-16T19:55:08.290Z,99.90
2018-05-16T19:57:36.037Z,99.90
2018-05-16T20:00:04.273Z,99.90
2018-05-16T20:02:31.796Z,99.90
2018-05-16T20:04:59.260Z,99.90
2018-05-16T20:07:26.784Z,99.90
2018-05-16T20:09:54.324Z,99.90
2018-05-16T20:12:21.821Z,99.90
2018-05-16T20:14:49.421Z,99.90
2018-05-16T20:17:16.930Z,99.90
2018-05-16T20:19:44.524Z,99.90
2018-05-16T20:22:12.010Z,99.90
2018-05-16T20:24:39.480Z,99.90
2018-05-16T20:27:06.993Z,99.90
2018-05-16T20:29:34.481Z,99.90
2018-05-16T20:32:01.970Z,99.90
2018-05-16T20:34:29.446Z,99.90
2018-05-16T20:36:56.921Z,99.90
2018-05-16T20:39:24.397Z,99.90
2018-05-16T20:41:51.892Z,99.90
2018-05-16T20:44:19.379Z,99.90
2018-05-16T20:46:46.961Z,99.90
2018-05-16T20:49:14.465Z,99.90
2018-05-16T20:51:41.937Z,99.90
2018-05-16T20:54:09.433Z,99.90
2018-05-16T20:56:37.012Z,99.90
2018-05-16T20:59:04.539Z,99.90
2018-05-16T21:01:32.773Z,99.90
2018-05-16T21:04:00.273Z,99.90
2018-05-16T21:06:27.739Z,99.90
2018-05-16T21:08:55.213Z,99.90
2018-05-16T21:11:23.510Z,99.90
2018-05-16T21:13:51.881Z,99.90
2018-05-16T21:16:19.344Z,99.90
2018-05-16T21:18:46.942Z,99.90
2018-05-16T21:21:14.513Z,99.90
2018-05-16T21:23:42.000Z,99.90
2018-05-16T21:26:09.482Z,99.90
2018-05-16T21:28:36.978Z,99.90
2018-05-16T21:31:04.446Z,99.90
2018-05-16T21:33:32.025Z,99.90
2018-05-16T21:35:59.488Z,99.90
2018-05-16T21:38:26.991Z,99.90
2018-05-16T21:40:54.464Z,99.90
2018-05-16T21:43:21.939Z,99.90
2018-05-16T21:45:50.188Z,99.90
2018-05-16T21:48:17.658Z,99.90
2018-05-16T21:50:45.125Z,99.90
2018-05-16T21:53:12.592Z,99.90
2018-05-16T21:55:40.853Z,99.90
2018-05-16T21:58:08.369Z,99.90
2018-05-16T22:00:36.605Z,99.90
2018-05-16T22:03:04.073Z,99.90
2018-05-16T22:05:31.548Z,99.90
2018-05-16T22:07:59.015Z,99.90
2018-05-16T22:10:27.259Z,99.90
2018-05-16T22:12:54.757Z,99.90
2018-05-16T22:15:22.973Z,99.90
2018-05-16T22:17:50.437Z,99.90
2018-05-16T22:20:17.931Z,99.90
2018-05-16T22:22:45.401Z,99.90
2018-05-16T22:25:12.993Z,99.90
2018-05-16T22:27:40.475Z,99.90
2018-05-16T22:30:07.493Z,99.90
2018-05-16T22:32:41.313Z,99.90
2018-05-16T22:35:14.565Z,99.90
2018-05-16T22:37:47.810Z,99.90
2018-05-16T22:40:21.017Z,99.90
2018-05-16T22:42:47.988Z,99.90
2018-05-16T22:45:21.204Z,99.90
2018-05-16T22:47:48.675Z,99.90
2018-05-16T22:50:16.140Z,99.90
2018-05-16T22:52:44.393Z,99.90
2018-05-16T22:55:11.872Z,99.90
2018-05-16T22:57:39.370Z,99.90
2018-05-16T23:00:06.853Z,99.90
2018-05-16T23:02:34.327Z,99.90
2018-05-16T23:05:01.805Z,99.90
2018-05-16T23:07:30.052Z,99.90
2018-05-16T23:09:57.537Z,99.90
2018-05-16T23:12:25.020Z,99.90
2018-05-16T23:14:52.492Z,99.90
2018-05-16T23:17:19.972Z,99.90
2018-05-16T23:19:48.315Z,99.90
2018-05-16T23:22:15.788Z,99.90
2018-05-16T23:24:43.260Z,99.90
2018-05-16T23:27:10.769Z,99.90
2018-05-16T23:29:38.258Z,99.90
2018-05-16T23:32:05.745Z,99.90
2018-05-16T23:34:33.221Z,99.90
2018-05-16T23:37:00.708Z,99.90
2018-05-16T23:39:28.205Z,99.90
2018-05-16T23:41:55.689Z,99.90
2018-05-16T23:44:23.176Z,99.90
2018-05-16T23:46:50.644Z,99.90
2018-05-16T23:49:18.113Z,99.90
2018-05-16T23:51:45.580Z,99.90
2018-05-16T23:54:13.046Z,99.90
2018-05-16T23:56:41.282Z,99.90
2018-05-16T23:59:08.797Z,99.90
